createdAt,value
2022-11-27T00:01:36.407Z,89.86
2022-11-27T00:04:09.442Z,89.83
2022-11-27T00:06:42.932Z,89.85
2022-11-27T00:09:14.800Z,89.91
2022-11-27T00:11:44.526Z,89.91
2022-11-27T00:14:17.034Z,89.92
2022-11-27T00:16:45.352Z,89.91
2022-11-27T00:19:13.435Z,89.90
2022-11-27T00:21:41.592Z,89.91
2022-11-27T00:24:12.057Z,89.94
2022-11-27T00:26:40.191Z,89.99
2022-11-27T00:29:09.163Z,89.98
2022-11-27T00:31:38.050Z,90.03
2022-11-27T00:34:08.865Z,90.05
2022-11-27T00:36:38.085Z,90.05
2022-11-27T00:39:07.094Z,90.09
2022-11-27T00:41:35.558Z,90.12
2022-11-27T00:44:04.465Z,90.14
2022-11-27T00:46:35.731Z,90.14
2022-11-27T00:49:06.740Z,90.15
2022-11-27T00:51:36.437Z,90.15
2022-11-27T00:54:05.094Z,90.15
2022-11-27T00:56:36.194Z,90.14
2022-11-27T00:59:06.646Z,90.18
2022-11-27T01:01:41.765Z,90.24
2022-11-27T01:04:14.237Z,90.31
2022-11-27T01:06:43.307Z,90.33
2022-11-27T01:09:16.539Z,90.30
2022-11-27T01:11:44.670Z,90.32
2022-11-27T01:14:20.270Z,90.26
2022-11-27T01:16:48.370Z,90.23
2022-11-27T01:19:16.772Z,90.14
2022-11-27T01:21:45.795Z,90.07
2022-11-27T01:24:15.681Z,89.98
2022-11-27T01:26:44.579Z,89.86
2022-11-27T01:29:13.122Z,89.80
2022-11-27T01:31:41.439Z,89.79
2022-11-27T01:34:15.448Z,89.72
2022-11-27T01:36:43.922Z,89.71
2022-11-27T01:39:18.470Z,89.65
2022-11-27T01:41:48.788Z,89.66
2022-11-27T01:44:26.330Z,89.62
2022-11-27T01:47:07.915Z,89.57
2022-11-27T01:49:38.377Z,89.58
2022-11-27T01:52:29.795Z,89.47
2022-11-27T01:55:21.909Z,89.39
2022-11-27T01:57:59.226Z,89.29
2022-11-27T02:00:28.045Z,89.12
2022-11-27T02:02:56.299Z,89.04
2022-11-27T02:05:28.864Z,88.97
2022-11-27T02:07:59.188Z,88.93
2022-11-27T02:10:51.653Z,88.83
2022-11-27T02:13:31.155Z,88.99
2022-11-27T02:16:24.329Z,88.99
2022-11-27T02:19:27.189Z,89.07
2022-11-27T02:22:17.335Z,89.16
2022-11-27T02:25:07.519Z,89.19
2022-11-27T02:28:11.140Z,89.26
2022-11-27T02:30:46.368Z,89.39
2022-11-27T02:33:20.034Z,89.34
2022-11-27T02:36:07.757Z,89.34
2022-11-27T02:38:45.195Z,89.38
2022-11-27T02:41:19.880Z,89.41
2022-11-27T02:43:51.006Z,89.37
2022-11-27T02:46:21.172Z,89.38
2022-11-27T02:48:52.959Z,89.29
2022-11-27T02:51:25.739Z,89.27
2022-11-27T02:54:01.930Z,89.32
2022-11-27T02:56:32.731Z,89.42
2022-11-27T02:59:06.839Z,89.42
2022-11-27T03:01:41.676Z,89.36
2022-11-27T03:04:17.990Z,89.36
2022-11-27T03:06:54.904Z,89.37
2022-11-27T03:09:49.565Z,89.33
2022-11-27T03:12:19.486Z,89.34
2022-11-27T03:14:48.902Z,89.24
2022-11-27T03:17:41.232Z,89.11
2022-11-27T03:20:25.871Z,89.04
2022-11-27T03:22:57.558Z,89.10
2022-11-27T03:25:25.746Z,89.20
2022-11-27T03:28:08.500Z,89.21
2022-11-27T03:30:38.158Z,89.24
2022-11-27T03:33:08.316Z,89.48
2022-11-27T03:35:39.283Z,89.46
2022-11-27T03:38:07.366Z,89.38
2022-11-27T03:41:10.206Z,89.50
2022-11-27T03:43:46.931Z,89.65
2022-11-27T03:46:32.576Z,89.77
2022-11-27T03:49:15.444Z,89.82
2022-11-27T03:52:03.695Z,89.75
2022-11-27T03:54:49.740Z,89.71
2022-11-27T03:57:34.182Z,89.80
2022-11-27T04:00:07.347Z,89.91
2022-11-27T04:02:47.932Z,89.92
2022-11-27T04:05:16.902Z,89.88
2022-11-27T04:07:44.954Z,89.91
2022-11-27T04:10:13.176Z,89.91
2022-11-27T04:12:41.233Z,89.89
2022-11-27T04:15:09.701Z,89.93
2022-11-27T04:17:37.730Z,89.94
2022-11-27T04:20:06.996Z,89.93
2022-11-27T04:22:35.414Z,89.94
2022-11-27T04:25:04.173Z,89.91
2022-11-27T04:27:32.583Z,89.94
2022-11-27T04:30:00.831Z,89.98
2022-11-27T04:32:29.267Z,90.00
2022-11-27T04:34:57.483Z,89.88
2022-11-27T04:37:25.926Z,89.98
2022-11-27T04:39:54.057Z,90.01
2022-11-27T04:42:22.605Z,90.05
2022-11-27T04:44:50.805Z,90.13
2022-11-27T04:47:19.074Z,90.07
2022-11-27T04:49:47.320Z,90.13
2022-11-27T04:52:15.483Z,90.13
2022-11-27T04:54:43.722Z,90.10
2022-11-27T04:57:11.712Z,90.17
2022-11-27T04:59:39.759Z,90.13
2022-11-27T05:02:07.872Z,90.19
2022-11-27T05:04:35.963Z,90.20
2022-11-27T05:07:04.061Z,90.17
2022-11-27T05:09:32.195Z,90.19
2022-11-27T05:12:00.766Z,90.23
2022-11-27T05:14:29.393Z,90.18
2022-11-27T05:16:59.370Z,90.29
2022-11-27T05:19:30.686Z,90.24
2022-11-27T05:21:59.123Z,90.19
2022-11-27T05:24:29.172Z,90.15
2022-11-27T05:26:58.070Z,90.19
2022-11-27T05:29:26.551Z,90.19
2022-11-27T05:31:54.730Z,90.12
2022-11-27T05:34:23.215Z,90.09
2022-11-27T05:36:51.217Z,90.04
2022-11-27T05:39:19.264Z,90.11
2022-11-27T05:41:47.457Z,90.12
2022-11-27T05:44:15.886Z,89.97
2022-11-27T05:46:44.336Z,89.89
2022-11-27T05:49:15.005Z,89.87
2022-11-27T05:51:50.370Z,89.95
2022-11-27T05:54:19.478Z,89.89
2022-11-27T05:56:47.739Z,89.95
2022-11-27T05:59:16.301Z,89.91
2022-11-27T06:01:44.491Z,89.71
2022-11-27T06:04:12.714Z,89.62
2022-11-27T06:06:40.970Z,89.73
2022-11-27T06:09:12.790Z,89.73
2022-11-27T06:11:42.905Z,89.62
2022-11-27T06:14:11.933Z,89.54
2022-11-27T06:16:40.133Z,89.42
2022-11-27T06:19:09.227Z,89.52
2022-11-27T06:21:37.488Z,89.52
2022-11-27T06:24:06.049Z,89.58
2022-11-27T06:26:34.506Z,89.69
2022-11-27T06:29:03.404Z,89.70
2022-11-27T06:31:33.223Z,89.80
2022-11-27T06:34:02.524Z,89.91
2022-11-27T06:36:34.247Z,89.92
2022-11-27T06:39:05.743Z,90.10
2022-11-27T06:41:34.388Z,90.21
2022-11-27T06:44:02.630Z,90.24
2022-11-27T06:46:30.817Z,90.20
2022-11-27T06:48:59.724Z,90.26
2022-11-27T06:51:30.342Z,90.27
2022-11-27T06:54:02.341Z,90.22
2022-11-27T06:56:31.773Z,90.31
2022-11-27T06:59:05.738Z,90.29
2022-11-27T07:01:35.190Z,90.28
2022-11-27T07:04:03.345Z,90.27
2022-11-27T07:06:31.539Z,90.23
2022-11-27T07:08:59.806Z,90.28
2022-11-27T07:11:30.470Z,90.46
2022-11-27T07:14:02.800Z,90.47
2022-11-27T07:16:36.830Z,90.53
2022-11-27T07:19:08.740Z,90.52
2022-11-27T07:21:40.894Z,90.45
2022-11-27T07:24:09.013Z,90.59
2022-11-27T07:26:36.978Z,90.69
2022-11-27T07:29:05.229Z,90.84
2022-11-27T07:31:33.401Z,90.93
2022-11-27T07:34:01.927Z,91.05
2022-11-27T07:36:31.001Z,91.17
2022-11-27T07:38:59.220Z,91.21
2022-11-27T07:41:33.517Z,91.09
2022-11-27T07:44:03.255Z,90.78
2022-11-27T07:46:31.429Z,90.77
2022-11-27T07:49:00.930Z,90.62
2022-11-27T07:51:30.170Z,90.39
2022-11-27T07:54:00.049Z,90.28
2022-11-27T07:56:28.134Z,90.46
2022-11-27T07:58:57.465Z,90.51
2022-11-27T08:01:25.837Z,90.59
2022-11-27T08:03:53.946Z,90.64
2022-11-27T08:06:27.351Z,90.55
2022-11-27T08:08:58.620Z,90.55
2022-11-27T08:11:30.238Z,90.59
2022-11-27T08:14:01.386Z,90.65
2022-11-27T08:16:30.804Z,90.67
2022-11-27T08:18:59.339Z,90.61
2022-11-27T08:21:28.748Z,90.44
2022-11-27T08:23:58.271Z,90.54
2022-11-27T08:27:48.696Z,90.60
2022-11-27T08:30:16.946Z,90.63
2022-11-27T08:32:45.488Z,90.59
2022-11-27T08:35:13.901Z,90.44
2022-11-27T08:37:42.290Z,90.25
2022-11-27T08:40:11.140Z,90.30
2022-11-27T08:42:39.255Z,89.97
2022-11-27T08:45:08.128Z,89.94
2022-11-27T08:47:36.494Z,89.62
2022-11-27T08:50:05.209Z,89.38
2022-11-27T08:52:33.345Z,89.39
2022-11-27T08:55:01.625Z,89.41
2022-11-27T08:57:29.839Z,89.33
2022-11-27T08:59:58.047Z,89.52
2022-11-27T09:02:26.242Z,89.60
2022-11-27T09:04:54.471Z,89.67
2022-11-27T09:07:23.003Z,89.68
2022-11-27T09:09:50.999Z,89.78
2022-11-27T09:12:19.190Z,89.78
2022-11-27T09:14:49.541Z,89.84
2022-11-27T09:17:18.918Z,89.54
2022-11-27T09:19:47.586Z,89.60
2022-11-27T09:22:15.902Z,89.49
2022-11-27T09:24:44.119Z,89.34
2022-11-27T09:27:12.280Z,89.23
2022-11-27T09:29:40.458Z,89.41
2022-11-27T09:32:08.681Z,89.45
2022-11-27T09:34:37.603Z,89.47
2022-11-27T09:37:06.361Z,89.48
2022-11-27T09:39:34.931Z,89.38
2022-11-27T09:42:09.795Z,89.04
2022-11-27T09:44:45.729Z,89.08
2022-11-27T09:47:41.909Z,89.10
2022-11-27T09:50:10.557Z,88.93
2022-11-27T09:52:41.296Z,89.01
2022-11-27T09:55:15.536Z,89.15
2022-11-27T09:57:54.035Z,88.66
2022-11-27T10:00:22.898Z,88.19
2022-11-27T10:02:51.546Z,88.38
2022-11-27T10:05:26.843Z,88.22
2022-11-27T10:08:03.245Z,88.15
2022-11-27T10:10:59.444Z,87.96
2022-11-27T10:13:46.179Z,87.59
2022-11-27T10:16:23.076Z,87.55
2022-11-27T10:19:22.606Z,87.32
2022-11-27T10:22:21.164Z,87.41
2022-11-27T10:25:21.173Z,87.46
2022-11-27T10:28:11.270Z,87.39
2022-11-27T10:30:55.110Z,87.30
2022-11-27T10:33:33.483Z,87.23
2022-11-27T10:36:01.700Z,86.94
2022-11-27T10:38:35.265Z,86.72
2022-11-27T10:41:07.729Z,87.01
2022-11-27T10:43:37.960Z,87.21
2022-11-27T10:46:21.972Z,86.91
2022-11-27T10:48:50.415Z,86.39
2022-11-27T10:51:31.402Z,86.14
2022-11-27T10:54:01.795Z,86.23
2022-11-27T10:57:01.275Z,86.54
2022-11-27T10:59:37.924Z,86.67
2022-11-27T11:02:09.148Z,86.58
2022-11-27T11:04:38.936Z,86.17
2022-11-27T11:07:29.515Z,85.87
2022-11-27T11:09:57.955Z,85.74
2022-11-27T11:12:26.175Z,85.31
2022-11-27T11:15:01.857Z,85.48
2022-11-27T11:17:37.640Z,85.74
2022-11-27T11:20:26.020Z,85.81
2022-11-27T11:22:54.498Z,85.92
2022-11-27T11:25:22.635Z,85.92
2022-11-27T11:27:52.700Z,85.98
2022-11-27T11:30:24.056Z,86.06
2022-11-27T11:33:03.408Z,85.59
2022-11-27T11:35:35.404Z,85.39
2022-11-27T11:38:07.897Z,85.37
2022-11-27T11:40:38.156Z,85.44
2022-11-27T11:43:23.323Z,85.12
2022-11-27T11:45:51.540Z,85.16
2022-11-27T11:48:24.296Z,85.44
2022-11-27T11:51:07.617Z,85.59
2022-11-27T11:53:40.579Z,85.72
2022-11-27T11:56:11.761Z,85.65
2022-11-27T11:59:01.633Z,85.18
2022-11-27T12:01:46.454Z,85.18
2022-11-27T12:04:33.927Z,85.17
2022-11-27T12:07:04.592Z,84.93
2022-11-27T12:09:46.601Z,84.71
2022-11-27T12:12:43.940Z,84.88
2022-11-27T12:15:17.323Z,84.92
2022-11-27T12:18:26.339Z,85.19
2022-11-27T12:21:05.190Z,85.22
2022-11-27T12:23:45.156Z,85.26
2022-11-27T12:26:18.820Z,85.15
2022-11-27T12:28:59.181Z,85.14
2022-11-27T12:31:42.006Z,85.37
2022-11-27T12:34:38.487Z,85.50
2022-11-27T12:37:26.340Z,85.65
2022-11-27T12:40:18.493Z,85.76
2022-11-27T12:43:09.636Z,85.87
2022-11-27T12:45:53.821Z,85.76
2022-11-27T12:48:39.760Z,85.73
2022-11-27T12:51:16.426Z,85.81
2022-11-27T12:54:04.187Z,85.87
2022-11-27T12:56:41.846Z,85.85
2022-11-27T12:59:25.732Z,85.80
2022-11-27T13:02:09.200Z,85.84
2022-11-27T13:04:45.204Z,85.78
2022-11-27T13:07:45.849Z,85.73
2022-11-27T13:10:28.762Z,85.70
2022-11-27T13:13:23.061Z,85.31
2022-11-27T13:16:11.616Z,85.43
2022-11-27T13:18:55.298Z,85.59
2022-11-27T13:21:30.212Z,85.54
2022-11-27T13:24:12.840Z,85.67
2022-11-27T13:26:55.097Z,85.83
2022-11-27T13:29:34.549Z,85.93
2022-11-27T13:32:05.199Z,85.97
2022-11-27T13:34:43.173Z,86.12
2022-11-27T13:37:42.009Z,86.11
2022-11-27T13:40:12.832Z,86.12
2022-11-27T13:42:45.544Z,86.15
2022-11-27T13:45:44.115Z,86.16
2022-11-27T13:48:38.758Z,86.35
2022-11-27T13:51:10.286Z,86.41
2022-11-27T13:53:41.095Z,86.48
2022-11-27T13:56:10.067Z,86.61
2022-11-27T13:58:42.259Z,86.74
2022-11-27T14:01:19.513Z,86.85
2022-11-27T14:03:48.965Z,86.89
2022-11-27T14:06:19.084Z,86.92
2022-11-27T14:08:59.605Z,86.92
2022-11-27T14:11:44.529Z,86.99
2022-11-27T14:14:23.443Z,86.86
2022-11-27T14:16:59.021Z,86.91
2022-11-27T14:19:59.747Z,87.01
2022-11-27T14:22:48.493Z,87.05
2022-11-27T14:25:30.188Z,86.88
2022-11-27T14:28:30.803Z,87.01
2022-11-27T14:31:01.964Z,87.17
2022-11-27T14:33:59.707Z,86.91
2022-11-27T14:36:28.543Z,87.05
2022-11-27T14:38:57.191Z,87.32
2022-11-27T14:41:27.407Z,87.49
2022-11-27T14:44:02.788Z,87.50
2022-11-27T14:46:36.262Z,87.62
2022-11-27T14:49:04.708Z,87.83
2022-11-27T14:51:35.905Z,87.92
2022-11-27T14:54:11.400Z,87.96
2022-11-27T14:56:43.606Z,87.96
2022-11-27T14:59:23.556Z,88.06
2022-11-27T15:02:07.443Z,88.06
2022-11-27T15:04:39.147Z,88.25
2022-11-27T15:07:45.225Z,88.35
2022-11-27T15:10:22.253Z,88.49
2022-11-27T15:12:51.161Z,88.51
2022-11-27T15:15:42.101Z,88.58
2022-11-27T15:18:27.653Z,88.65
2022-11-27T15:20:57.335Z,88.75
2022-11-27T15:23:31.719Z,88.79
2022-11-27T15:25:59.858Z,88.90
2022-11-27T15:28:32.510Z,88.88
2022-11-27T15:31:01.276Z,89.00
2022-11-27T15:33:32.575Z,89.08
2022-11-27T15:36:20.063Z,89.05
2022-11-27T15:38:51.333Z,89.33
2022-11-27T15:41:26.165Z,89.44
2022-11-27T15:43:55.799Z,89.49
2022-11-27T15:46:30.380Z,89.56
2022-11-27T15:48:58.946Z,89.62
2022-11-27T15:51:26.939Z,89.70
2022-11-27T15:53:55.127Z,89.84
2022-11-27T15:56:23.199Z,89.94
2022-11-27T15:58:51.339Z,89.94
2022-11-27T16:01:19.428Z,89.91
2022-11-27T16:21:35.308Z,89.81
2022-11-27T16:26:19.260Z,89.70
2022-11-27T16:29:05.807Z,89.62
2022-11-27T16:31:52.173Z,89.56
2022-11-27T16:34:37.729Z,89.62
2022-11-27T16:39:56.780Z,89.78
2022-11-27T16:54:49.224Z,89.71
2022-11-27T16:57:51.363Z,89.88
2022-11-27T17:01:48.139Z,89.86
2022-11-27T17:05:51.549Z,89.91
2022-11-27T17:10:15.104Z,89.99
2022-11-27T17:14:26.951Z,90.05
2022-11-27T17:17:53.873Z,90.18
2022-11-27T17:21:50.625Z,90.21
2022-11-27T17:36:37.162Z,90.50
2022-11-27T17:39:36.034Z,90.44
2022-11-27T17:44:04.796Z,90.30
2022-11-27T17:48:19.393Z,90.56
2022-11-27T17:51:42.265Z,90.69
2022-11-27T17:54:28.650Z,90.63
2022-11-27T17:57:15.109Z,90.71
2022-11-27T18:00:04.245Z,90.85
2022-11-27T18:02:50.662Z,90.92
2022-11-27T18:05:40.690Z,90.96
2022-11-27T18:08:27.390Z,90.92
2022-11-27T18:11:20.491Z,91.11
2022-11-27T18:14:07.212Z,91.25
2022-11-27T18:16:53.644Z,91.25
2022-11-27T18:19:40.192Z,91.22
2022-11-27T18:22:27.128Z,91.32
2022-11-27T18:25:13.943Z,91.36
2022-11-27T18:28:02.630Z,91.45
2022-11-27T18:30:49.120Z,91.50
2022-11-27T18:33:36.422Z,91.50
2022-11-27T18:36:23.851Z,91.50
2022-11-27T18:39:10.482Z,91.54
2022-11-27T18:41:57.016Z,91.62
2022-11-27T18:44:45.016Z,91.47
2022-11-27T18:47:33.590Z,91.38
2022-11-27T18:50:21.143Z,91.47
2022-11-27T18:53:15.211Z,91.53
2022-11-27T18:56:08.126Z,91.58
2022-11-27T18:58:55.352Z,91.65
2022-11-27T19:01:45.047Z,91.64
2022-11-27T19:04:34.341Z,91.90
2022-11-27T19:11:38.481Z,92.03
2022-11-27T19:14:25.162Z,91.95
2022-11-27T19:17:11.897Z,91.91
2022-11-27T19:20:02.308Z,92.17
2022-11-27T19:22:48.849Z,92.03
2022-11-27T19:25:39.865Z,91.94
2022-11-27T19:28:26.537Z,91.67
2022-11-27T19:31:16.184Z,91.69
2022-11-27T19:34:08.775Z,91.86
2022-11-27T19:36:58.910Z,91.94
2022-11-27T19:39:45.917Z,91.88
2022-11-27T19:42:33.058Z,91.66
2022-11-27T19:45:30.167Z,91.83
2022-11-27T19:48:22.699Z,91.76
2022-11-27T19:51:12.962Z,91.81
2022-11-27T19:54:05.645Z,91.81
2022-11-27T19:56:55.374Z,91.61
2022-11-27T19:59:43.082Z,91.76
2022-11-27T20:02:31.817Z,91.84
2022-11-27T20:05:19.516Z,91.99
2022-11-27T20:08:06.100Z,91.89
2022-11-27T20:10:52.564Z,92.04
2022-11-27T20:13:39.730Z,92.12
2022-11-27T20:16:26.800Z,92.21
2022-11-27T20:19:13.622Z,92.30
2022-11-27T20:22:00.335Z,92.33
2022-11-27T20:25:11.132Z,92.41
2022-11-27T20:27:53.327Z,92.45
2022-11-27T20:30:41.181Z,92.39
2022-11-27T20:33:29.170Z,92.47
2022-11-27T20:36:19.561Z,92.47
2022-11-27T20:39:06.472Z,92.47
2022-11-27T20:41:58.767Z,92.66
2022-11-27T20:44:45.938Z,92.81
2022-11-27T20:47:32.399Z,92.79
2022-11-27T20:50:22.633Z,92.76
2022-11-27T20:53:09.422Z,92.72
2022-11-27T20:55:56.141Z,92.72
2022-11-27T20:58:44.264Z,92.83
2022-11-27T21:01:33.792Z,92.84
2022-11-27T21:04:26.175Z,92.81
2022-11-27T21:07:14.705Z,92.81
2022-11-27T21:10:01.569Z,92.72
2022-11-27T21:12:50.228Z,92.58
2022-11-27T21:15:36.685Z,92.47
2022-11-27T21:18:22.925Z,92.45
2022-11-27T21:21:12.543Z,92.60
2022-11-27T21:23:59.948Z,92.66
2022-11-27T21:26:48.405Z,92.68
2022-11-27T21:29:36.062Z,92.63
2022-11-27T21:32:22.765Z,92.64
2022-11-27T21:35:09.589Z,92.67
2022-11-27T21:37:56.326Z,92.70
2022-11-27T21:40:43.618Z,92.77
2022-11-27T21:43:31.695Z,92.72
2022-11-27T21:46:20.122Z,92.67
2022-11-27T21:49:06.703Z,92.76
2022-11-27T21:51:54.051Z,92.74
2022-11-27T21:54:45.039Z,92.76
2022-11-27T21:57:31.756Z,92.79
2022-11-27T22:00:18.758Z,92.90
2022-11-27T22:03:05.384Z,92.88
2022-11-27T22:06:05.130Z,93.03
2022-11-27T22:08:54.295Z,92.94
2022-11-27T22:11:41.258Z,92.85
2022-11-27T22:14:27.301Z,92.82
2022-11-27T22:17:14.109Z,92.80
2022-11-27T22:20:00.683Z,92.82
2022-11-27T22:22:47.395Z,92.89
2022-11-27T22:25:33.609Z,92.73
2022-11-27T22:28:21.141Z,92.83
2022-11-27T22:31:13.097Z,92.89
2022-11-27T22:34:00.548Z,93.04
2022-11-27T22:36:49.836Z,93.08
2022-11-27T22:39:36.002Z,93.03
2022-11-27T22:42:22.741Z,92.99
2022-11-27T22:45:11.805Z,92.98
2022-11-27T22:47:58.424Z,92.95
2022-11-27T22:50:44.867Z,92.99
2022-11-27T22:53:31.624Z,92.97
2022-11-27T22:56:20.151Z,92.89
2022-11-27T23:02:14.014Z,92.98
2022-11-27T23:05:03.953Z,93.09
2022-11-27T23:07:50.516Z,93.03
2022-11-27T23:10:38.722Z,93.06
2022-11-27T23:13:25.084Z,92.97
2022-11-27T23:16:12.471Z,92.90
2022-11-27T23:18:59.159Z,92.91
2022-11-27T23:21:45.916Z,93.14
2022-11-27T23:24:33.898Z,93.22
2022-11-27T23:27:20.925Z,93.32
2022-11-27T23:30:08.383Z,93.33
2022-11-27T23:32:55.187Z,93.34
2022-11-27T23:35:41.946Z,93.31
2022-11-27T23:38:32.126Z,93.13
2022-11-27T23:41:20.941Z,93.13
2022-11-27T23:44:07.862Z,93.21
2022-11-27T23:46:55.547Z,93.26
2022-11-27T23:49:42.876Z,93.33
2022-11-27T23:52:29.651Z,93.41
2022-11-27T23:55:16.536Z,93.35
2022-11-27T23:58:03.589Z,93.38
